createdAt,value
2018-12-06T00:02:18.951Z,79.83
2018-12-06T00:04:48.741Z,79.37
2018-12-06T00:07:19.420Z,79.83
2018-12-06T00:09:49.229Z,79.73
2018-12-06T00:12:19.013Z,79.71
2018-12-06T00:14:49.165Z,78.90
2018-12-06T00:17:18.842Z,79.99
2018-12-06T00:19:48.586Z,79.66
2018-12-06T00:22:18.229Z,80.02
2018-12-06T00:24:48.001Z,80.85
2018-12-06T00:27:17.777Z,81.21
2018-12-06T00:30:03.050Z,80.05
2018-12-06T00:32:32.787Z,80.65
2018-12-06T00:35:02.731Z,80.68
2018-12-06T00:37:32.522Z,80.52
2018-12-06T00:40:03.145Z,80.88
2018-12-06T00:42:32.891Z,80.94
2018-12-06T00:45:03.129Z,80.98
2018-12-06T00:47:33.086Z,80.57
2018-12-06T00:50:03.105Z,80.84
2018-12-06T00:52:32.829Z,80.67
2018-12-06T00:55:02.494Z,80.60
2018-12-06T00:57:32.233Z,80.78
2018-12-06T01:00:02.684Z,80.56
2018-12-06T01:02:32.511Z,80.84
2018-12-06T01:05:02.386Z,80.67
2018-12-06T01:07:32.710Z,80.80
2018-12-06T01:10:02.474Z,79.84
2018-12-06T01:12:32.253Z,80.45
2018-12-06T01:15:02.249Z,80.38
2018-12-06T01:17:32.156Z,80.44
2018-12-06T01:20:02.048Z,80.98
2018-12-06T01:22:32.073Z,81.01
2018-12-06T01:25:01.792Z,81.16
2018-12-06T01:27:31.452Z,80.98
2018-12-06T01:30:03.872Z,80.94
2018-12-06T01:32:33.687Z,81.02
2018-12-06T01:35:04.064Z,81.00
2018-12-06T01:40:52.481Z,81.13
2018-12-06T01:43:22.317Z,81.12
2018-12-06T01:45:52.151Z,80.73
2018-12-06T01:48:22.252Z,81.37
2018-12-06T01:50:52.068Z,81.84
2018-12-06T01:53:21.885Z,81.35
2018-12-06T01:55:51.715Z,81.43
2018-12-06T01:58:21.498Z,81.36
2018-12-06T02:00:51.428Z,81.70
2018-12-06T02:03:21.193Z,81.81
2018-12-06T02:05:50.964Z,81.83
2018-12-06T02:08:20.682Z,82.17
2018-12-06T02:10:50.607Z,81.92
2018-12-06T02:13:20.365Z,81.41
2018-12-06T02:15:50.218Z,82.22
2018-12-06T02:18:20.121Z,81.77
2018-12-06T02:20:49.827Z,81.69
2018-12-06T02:23:19.620Z,81.65
2018-12-06T02:25:49.397Z,82.13
2018-12-06T02:28:19.246Z,82.59
2018-12-06T02:30:49.029Z,82.84
2018-12-06T02:33:18.833Z,83.48
2018-12-06T02:35:48.681Z,83.50
2018-12-06T02:38:18.387Z,83.25
2018-12-06T02:40:48.357Z,83.69
2018-12-06T02:43:18.043Z,84.20
2018-12-06T02:45:48.153Z,84.75
2018-12-06T02:48:17.913Z,85.37
2018-12-06T02:50:47.799Z,85.63
2018-12-06T02:53:17.913Z,85.84
2018-12-06T02:55:47.872Z,86.24
2018-12-06T02:58:17.574Z,86.32
2018-12-06T03:00:47.448Z,86.91
2018-12-06T03:03:17.727Z,87.25
2018-12-06T03:05:47.798Z,87.14
2018-12-06T03:08:17.596Z,87.52
2018-12-06T03:10:47.291Z,87.34
2018-12-06T03:13:17.013Z,87.96
2018-12-06T03:15:46.792Z,87.46
2018-12-06T03:18:16.800Z,88.28
2018-12-06T03:20:46.576Z,87.94
2018-12-06T03:23:16.411Z,88.43
2018-12-06T03:25:46.309Z,88.63
2018-12-06T03:28:16.822Z,88.50
2018-12-06T03:30:46.635Z,88.71
2018-12-06T03:33:16.330Z,88.82
2018-12-06T03:35:46.232Z,88.57
2018-12-06T03:38:16.067Z,88.79
2018-12-06T03:40:45.798Z,89.16
2018-12-06T03:43:15.808Z,89.57
2018-12-06T03:45:45.604Z,88.93
2018-12-06T03:48:15.479Z,89.44
2018-12-06T03:50:45.241Z,89.26
2018-12-06T03:53:14.908Z,88.84
2018-12-06T03:55:44.660Z,89.32
2018-12-06T03:58:14.485Z,89.71
2018-12-06T04:00:44.379Z,89.00
2018-12-06T04:03:14.086Z,89.65
2018-12-06T04:05:43.857Z,89.69
2018-12-06T04:08:13.670Z,89.39
2018-12-06T04:10:43.518Z,89.94
2018-12-06T04:13:13.455Z,89.53
2018-12-06T04:15:43.253Z,90.19
2018-12-06T04:18:13.092Z,89.94
2018-12-06T04:20:42.853Z,89.51
2018-12-06T04:23:12.673Z,89.75
2018-12-06T04:25:42.447Z,89.96
2018-12-06T04:28:12.143Z,89.75
2018-12-06T04:30:42.044Z,89.57
2018-12-06T04:33:11.914Z,89.97
2018-12-06T04:35:41.642Z,89.60
2018-12-06T04:38:11.314Z,89.06
2018-12-06T04:40:41.158Z,88.78
2018-12-06T04:43:10.887Z,89.01
2018-12-06T04:45:40.724Z,88.75
2018-12-06T04:48:10.597Z,89.44
2018-12-06T04:50:40.258Z,89.38
2018-12-06T04:53:10.010Z,89.36
2018-12-06T04:55:40.531Z,89.26
2018-12-06T04:58:10.312Z,89.26
2018-12-06T05:00:40.210Z,88.43
2018-12-06T05:03:10.026Z,88.82
2018-12-06T05:05:39.736Z,89.07
2018-12-06T05:08:09.510Z,88.75
2018-12-06T05:10:39.263Z,89.49
2018-12-06T05:13:09.345Z,89.51
2018-12-06T05:15:39.471Z,89.22
2018-12-06T05:18:09.750Z,89.22
2018-12-06T05:20:39.639Z,89.87
2018-12-06T05:23:09.533Z,89.98
2018-12-06T05:25:39.348Z,89.74
2018-12-06T05:28:09.337Z,90.42
2018-12-06T05:30:39.997Z,90.32
2018-12-06T05:33:09.673Z,90.22
2018-12-06T05:35:39.596Z,91.01
2018-12-06T05:38:09.348Z,90.31
2018-12-06T05:40:39.182Z,90.76
2018-12-06T05:43:08.976Z,91.36
2018-12-06T05:45:38.665Z,90.70
2018-12-06T05:48:09.476Z,91.04
2018-12-06T05:50:39.300Z,91.45
2018-12-06T05:53:08.993Z,91.49
2018-12-06T05:55:38.658Z,91.57
2018-12-06T05:58:08.470Z,91.03
2018-12-06T06:00:38.316Z,91.12
2018-12-06T06:03:08.148Z,91.74
2018-12-06T06:05:38.118Z,91.81
2018-12-06T06:08:07.899Z,91.77
2018-12-06T06:10:37.611Z,91.71
2018-12-06T06:13:07.530Z,91.83
2018-12-06T06:15:37.520Z,92.21
2018-12-06T06:18:07.366Z,92.01
2018-12-06T06:20:37.009Z,92.04
2018-12-06T06:23:06.709Z,91.82
2018-12-06T06:25:36.383Z,92.44
2018-12-06T06:28:06.134Z,92.29
2018-12-06T06:30:35.924Z,92.66
2018-12-06T06:33:05.842Z,92.18
2018-12-06T06:35:35.530Z,91.98
2018-12-06T06:38:05.277Z,92.47
2018-12-06T06:40:34.968Z,92.50
2018-12-06T06:43:04.682Z,92.17
2018-12-06T06:45:34.574Z,93.16
2018-12-06T06:48:04.666Z,92.92
2018-12-06T06:50:34.610Z,92.84
2018-12-06T06:53:04.686Z,92.58
2018-12-06T06:55:35.053Z,93.09
2018-12-06T06:58:04.897Z,92.68
2018-12-06T07:00:34.585Z,93.39
2018-12-06T07:03:04.515Z,93.35
2018-12-06T07:05:35.152Z,93.13
2018-12-06T07:08:04.927Z,92.80
2018-12-06T07:10:34.634Z,93.32
2018-12-06T07:13:05.405Z,93.15
2018-12-06T07:15:35.329Z,93.73
2018-12-06T07:18:05.130Z,93.34
2018-12-06T07:20:34.844Z,93.91
2018-12-06T07:23:04.617Z,93.61
2018-12-06T07:25:34.317Z,93.87
2018-12-06T07:28:04.200Z,93.50
2018-12-06T07:30:34.006Z,93.24
2018-12-06T07:33:04.406Z,93.29
2018-12-06T07:35:34.323Z,93.65
2018-12-06T07:38:04.361Z,94.17
2018-12-06T07:40:34.066Z,93.51
2018-12-06T07:45:57.722Z,94.08
2018-12-06T07:48:27.613Z,94.50
2018-12-06T07:50:57.398Z,94.04
2018-12-06T07:53:27.475Z,94.29
2018-12-06T07:55:57.165Z,94.57
2018-12-06T07:58:26.935Z,94.51
2018-12-06T08:00:56.611Z,94.61
2018-12-06T08:03:27.080Z,94.19
2018-12-06T08:05:57.242Z,93.91
2018-12-06T08:08:27.321Z,94.29
2018-12-06T08:10:57.138Z,94.29
2018-12-06T08:13:26.927Z,94.90
2018-12-06T08:15:56.742Z,94.44
2018-12-06T08:18:26.793Z,94.78
2018-12-06T08:20:56.632Z,94.00
2018-12-06T08:23:26.970Z,94.00
2018-12-06T08:25:57.691Z,93.99
2018-12-06T08:28:30.435Z,93.90
2018-12-06T08:31:00.475Z,94.78
2018-12-06T08:33:30.363Z,94.77
2018-12-06T08:36:00.229Z,94.29
2018-12-06T08:38:30.251Z,94.90
2018-12-06T08:41:00.101Z,94.39
2018-12-06T08:43:31.828Z,94.67
2018-12-06T08:46:01.741Z,95.01
2018-12-06T08:48:32.878Z,94.85
2018-12-06T08:53:53.456Z,94.44
2018-12-06T08:56:24.264Z,95.28
2018-12-06T08:58:54.341Z,94.47
2018-12-06T09:01:24.858Z,94.50
2018-12-06T09:03:55.469Z,94.77
2018-12-06T09:06:25.351Z,95.25
2018-12-06T09:08:55.379Z,94.67
2018-12-06T09:11:25.858Z,95.55
2018-12-06T09:13:55.622Z,95.19
2018-12-06T09:16:25.415Z,95.37
2018-12-06T09:18:55.531Z,94.84
2018-12-06T09:21:25.323Z,95.26
2018-12-06T09:23:55.284Z,94.68
2018-12-06T09:26:26.388Z,94.91
2018-12-06T09:28:56.717Z,94.92
2018-12-06T09:31:26.765Z,95.10
2018-12-06T09:34:07.266Z,94.58
2018-12-06T09:36:39.029Z,94.46
2018-12-06T09:39:11.520Z,94.48
2018-12-06T09:41:42.603Z,94.91
2018-12-06T09:44:13.482Z,94.71
2018-12-06T09:46:44.014Z,94.54
2018-12-06T09:49:14.227Z,94.30
2018-12-06T09:51:44.706Z,94.52
2018-12-06T09:54:15.742Z,94.22
2018-12-06T09:56:46.018Z,94.07
2018-12-06T09:59:15.862Z,94.13
2018-12-06T10:01:46.005Z,93.76
2018-12-06T10:04:16.234Z,93.90
2018-12-06T10:06:47.103Z,93.81
2018-12-06T10:09:16.912Z,93.94
2018-12-06T10:11:46.707Z,94.56
2018-12-06T10:14:16.555Z,94.20
2018-12-06T10:16:46.595Z,94.48
2018-12-06T10:19:16.345Z,94.49
2018-12-06T10:21:46.266Z,94.15
2018-12-06T10:24:17.390Z,93.87
2018-12-06T10:26:47.277Z,94.14
2018-12-06T10:29:17.024Z,94.34
2018-12-06T10:31:47.423Z,93.86
2018-12-06T10:34:17.243Z,94.14
2018-12-06T10:36:47.293Z,93.63
2018-12-06T10:39:17.867Z,93.70
2018-12-06T10:41:47.945Z,93.21
2018-12-06T10:44:30.074Z,92.16
2018-12-06T10:47:00.203Z,92.31
2018-12-06T10:49:30.117Z,91.71
2018-12-06T10:52:00.006Z,92.00
2018-12-06T10:54:30.531Z,91.30
2018-12-06T10:57:00.464Z,91.17
2018-12-06T10:59:30.362Z,91.29
2018-12-06T11:02:04.507Z,91.54
2018-12-06T11:04:35.841Z,91.28
2018-12-06T11:07:08.250Z,90.37
2018-12-06T11:09:38.123Z,90.67
2018-12-06T11:12:07.886Z,90.80
2018-12-06T11:14:37.797Z,91.08
2018-12-06T11:17:07.552Z,90.80
2018-12-06T11:19:37.539Z,90.67
2018-12-06T11:22:07.662Z,89.96
2018-12-06T11:24:37.919Z,90.65
2018-12-06T11:27:07.721Z,90.74
2018-12-06T11:29:37.822Z,90.00
2018-12-06T11:32:09.547Z,90.13
2018-12-06T11:34:39.503Z,89.94
2018-12-06T11:37:09.324Z,89.86
2018-12-06T11:39:39.199Z,90.61
2018-12-06T11:42:09.324Z,90.27
2018-12-06T11:44:39.466Z,90.36
2018-12-06T11:47:09.190Z,91.08
2018-12-06T11:49:39.086Z,90.87
2018-12-06T11:52:09.753Z,90.86
2018-12-06T11:54:40.162Z,91.10
2018-12-06T11:57:10.036Z,90.63
2018-12-06T11:59:39.947Z,90.77
2018-12-06T12:02:10.398Z,90.81
2018-12-06T12:04:40.278Z,90.56
2018-12-06T12:07:10.142Z,90.38
2018-12-06T12:09:40.011Z,90.61
2018-12-06T12:12:09.997Z,90.96
2018-12-06T12:14:39.665Z,90.63
2018-12-06T12:17:10.393Z,90.75
2018-12-06T12:19:40.215Z,90.14
2018-12-06T12:22:10.387Z,89.44
2018-12-06T12:24:40.213Z,89.31
2018-12-06T12:27:10.076Z,88.99
2018-12-06T12:29:39.802Z,89.10
2018-12-06T12:32:09.653Z,88.67
2018-12-06T12:34:39.627Z,88.05
2018-12-06T12:37:09.433Z,88.55
2018-12-06T12:39:39.299Z,87.56
2018-12-06T12:42:09.520Z,88.30
2018-12-06T12:44:39.323Z,87.32
2018-12-06T12:47:09.298Z,86.52
2018-12-06T12:49:38.986Z,87.36
2018-12-06T12:52:08.949Z,87.14
2018-12-06T12:54:38.893Z,86.86
2018-12-06T12:57:08.712Z,85.78
2018-12-06T12:59:38.492Z,86.25
2018-12-06T13:02:08.406Z,85.82
2018-12-06T13:04:38.089Z,86.06
2018-12-06T13:07:13.658Z,86.43
2018-12-06T13:09:43.694Z,86.27
2018-12-06T13:12:14.421Z,86.45
2018-12-06T13:14:44.271Z,86.30
2018-12-06T13:17:14.068Z,85.75
2018-12-06T13:19:44.194Z,85.48
2018-12-06T13:22:14.092Z,86.58
2018-12-06T13:24:43.986Z,86.01
2018-12-06T13:27:13.900Z,85.95
2018-12-06T13:29:43.744Z,85.98
2018-12-06T13:32:13.510Z,86.47
2018-12-06T13:34:44.305Z,86.60
2018-12-06T13:37:14.194Z,86.84
2018-12-06T13:39:44.168Z,86.56
2018-12-06T13:42:14.444Z,86.82
2018-12-06T13:44:44.353Z,86.31
2018-12-06T13:47:14.317Z,86.95
2018-12-06T13:49:44.358Z,86.78
2018-12-06T13:52:14.165Z,86.59
2018-12-06T13:54:45.318Z,86.64
2018-12-06T13:57:15.314Z,87.29
2018-12-06T13:59:45.308Z,87.10
2018-12-06T14:02:15.890Z,87.18
2018-12-06T14:04:45.605Z,87.10
2018-12-06T14:07:15.672Z,87.44
2018-12-06T14:09:47.156Z,86.81
2018-12-06T14:12:17.269Z,86.68
2018-12-06T14:14:47.421Z,87.34
2018-12-06T14:17:17.161Z,87.19
2018-12-06T14:19:47.094Z,87.29
2018-12-06T14:22:16.833Z,87.60
2018-12-06T14:24:46.735Z,87.26
2018-12-06T14:27:16.452Z,86.93
2018-12-06T14:29:46.310Z,87.06
2018-12-06T14:32:16.198Z,87.62
2018-12-06T14:34:46.115Z,87.79
2018-12-06T14:37:16.181Z,86.67
2018-12-06T14:39:46.781Z,87.40
2018-12-06T14:42:17.154Z,86.84
2018-12-06T14:44:47.102Z,87.60
2018-12-06T14:47:17.011Z,87.81
2018-12-06T14:49:47.609Z,87.00
2018-12-06T14:52:17.490Z,86.82
2018-12-06T14:54:47.624Z,87.06
2018-12-06T14:57:17.995Z,87.11
2018-12-06T14:59:47.963Z,87.00
2018-12-06T15:02:18.511Z,86.85
2018-12-06T15:04:48.374Z,87.01
2018-12-06T15:07:18.268Z,87.34
2018-12-06T15:09:48.230Z,86.69
2018-12-06T15:12:18.102Z,87.06
2018-12-06T15:14:47.951Z,86.96
2018-12-06T15:17:18.764Z,86.58
2018-12-06T15:19:49.054Z,87.39
2018-12-06T15:22:19.114Z,86.83
2018-12-06T15:24:48.989Z,86.70
2018-12-06T15:27:19.311Z,85.96
2018-12-06T15:29:49.777Z,85.98
2018-12-06T15:32:19.576Z,86.28
2018-12-06T15:34:50.093Z,85.13
2018-12-06T15:37:20.290Z,85.83
2018-12-06T15:39:50.152Z,85.53
2018-12-06T15:42:20.015Z,85.41
2018-12-06T15:44:49.872Z,85.76
2018-12-06T15:47:19.879Z,85.65
2018-12-06T15:49:49.762Z,86.05
2018-12-06T15:52:20.209Z,86.11
2018-12-06T15:54:49.985Z,85.84
2018-12-06T15:57:19.729Z,86.16
2018-12-06T15:59:49.597Z,85.27
2018-12-06T16:02:19.401Z,86.21
2018-12-06T16:04:49.189Z,86.44
2018-12-06T16:07:19.486Z,85.32
2018-12-06T16:09:49.594Z,86.19
2018-12-06T16:12:19.678Z,85.46
2018-12-06T16:14:50.574Z,85.15
2018-12-06T16:17:21.843Z,85.62
2018-12-06T16:19:51.641Z,85.86
2018-12-06T16:22:21.459Z,85.14
2018-12-06T16:24:51.517Z,85.55
2018-12-06T16:27:21.295Z,86.01
2018-12-06T16:29:51.635Z,85.82
2018-12-06T16:32:21.758Z,85.57
2018-12-06T16:34:51.980Z,85.88
2018-12-06T16:37:21.676Z,86.13
2018-12-06T16:39:51.578Z,86.19
2018-12-06T16:42:21.359Z,86.31
2018-12-06T16:44:51.266Z,86.49
2018-12-06T16:47:21.164Z,86.24
2018-12-06T16:49:51.294Z,86.42
2018-12-06T16:52:21.326Z,85.32
2018-12-06T16:54:51.136Z,85.90
2018-12-06T16:57:20.829Z,86.39
2018-12-06T16:59:50.867Z,86.29
2018-12-06T17:02:21.979Z,86.48
2018-12-06T17:04:52.605Z,85.57
2018-12-06T17:07:22.698Z,85.91
2018-12-06T17:09:52.920Z,85.99
2018-12-06T17:12:22.843Z,86.02
2018-12-06T17:14:52.653Z,85.75
2018-12-06T17:17:22.669Z,85.44
2018-12-06T17:19:52.580Z,85.94
2018-12-06T17:22:22.389Z,85.93
2018-12-06T17:24:52.282Z,85.89
2018-12-06T17:27:22.169Z,86.39
2018-12-06T17:29:52.847Z,86.16
2018-12-06T17:32:23.099Z,85.76
2018-12-06T17:34:53.323Z,85.80
2018-12-06T17:37:23.229Z,86.30
2018-12-06T17:39:53.265Z,86.15
2018-12-06T17:42:23.601Z,86.96
2018-12-06T17:44:53.683Z,86.38
2018-12-06T17:47:23.711Z,86.19
2018-12-06T17:49:53.908Z,86.54
2018-12-06T17:52:24.251Z,86.34
2018-12-06T17:54:55.010Z,86.43
2018-12-06T17:57:25.083Z,86.14
2018-12-06T17:59:54.917Z,86.10
2018-12-06T18:02:25.039Z,85.55
2018-12-06T18:04:55.105Z,85.47
2018-12-06T18:07:25.326Z,85.52
2018-12-06T18:09:55.204Z,85.48
2018-12-06T18:12:25.208Z,85.76
2018-12-06T18:14:54.944Z,84.70
2018-12-06T18:17:25.045Z,84.96
2018-12-06T18:19:55.050Z,86.09
2018-12-06T18:22:25.056Z,85.88
2018-12-06T18:24:55.167Z,85.91
2018-12-06T18:27:25.258Z,85.36
2018-12-06T18:29:55.951Z,86.06
2018-12-06T18:32:26.214Z,85.52
2018-12-06T18:34:56.121Z,85.78
2018-12-06T18:37:26.105Z,86.44
2018-12-06T18:39:56.498Z,86.44
2018-12-06T18:42:26.659Z,86.15
2018-12-06T18:44:56.601Z,86.43
2018-12-06T18:47:26.714Z,85.86
2018-12-06T18:49:56.614Z,86.51
2018-12-06T18:52:26.509Z,86.26
2018-12-06T18:54:56.609Z,86.38
2018-12-06T18:57:26.682Z,86.02
2018-12-06T18:59:57.571Z,86.64
2018-12-06T19:02:27.753Z,86.43
2018-12-06T19:04:57.918Z,87.04
2018-12-06T19:07:27.865Z,86.88
2018-12-06T19:09:57.873Z,86.95
2018-12-06T19:12:27.929Z,87.11
2018-12-06T19:14:58.305Z,86.56
2018-12-06T19:17:28.514Z,86.68
2018-12-06T19:19:58.458Z,87.50
2018-12-06T19:22:28.433Z,87.37
2018-12-06T19:24:58.631Z,87.98
2018-12-06T19:27:28.962Z,87.04
2018-12-06T19:29:59.195Z,87.20
2018-12-06T19:32:29.333Z,87.75
2018-12-06T19:34:59.625Z,86.91
2018-12-06T19:37:30.658Z,87.51
2018-12-06T19:42:50.314Z,87.38
2018-12-06T19:45:21.535Z,87.63
2018-12-06T19:47:52.139Z,87.66
2018-12-06T19:50:23.034Z,87.92
2018-12-06T19:52:53.430Z,87.04
2018-12-06T19:55:23.727Z,87.38
2018-12-06T19:57:53.860Z,86.76
2018-12-06T20:00:24.824Z,87.31
2018-12-06T20:02:55.031Z,87.05
2018-12-06T20:05:25.687Z,87.80
2018-12-06T20:07:55.569Z,86.46
2018-12-06T20:13:14.895Z,86.58
2018-12-06T20:15:45.209Z,86.60
2018-12-06T20:18:15.156Z,86.45
2018-12-06T20:20:45.178Z,85.82
2018-12-06T20:23:15.526Z,85.52
2018-12-06T20:25:45.804Z,86.15
2018-12-06T20:28:15.924Z,85.85
2018-12-06T20:30:46.159Z,86.21
2018-12-06T20:36:05.295Z,85.21
2018-12-06T20:38:35.737Z,86.01
2018-12-06T20:41:05.597Z,85.96
2018-12-06T20:43:35.812Z,85.58
2018-12-06T20:46:05.931Z,85.02
2018-12-06T20:48:35.618Z,85.16
2018-12-06T20:51:05.442Z,85.88
2018-12-06T20:53:35.264Z,84.88
2018-12-06T20:56:05.109Z,84.90
2018-12-06T20:58:34.938Z,85.17
2018-12-06T21:01:05.319Z,85.69
2018-12-06T21:03:35.264Z,84.63
2018-12-06T21:06:07.479Z,84.65
2018-12-06T21:08:37.915Z,84.65
2018-12-06T21:11:08.771Z,84.78
2018-12-06T21:13:38.611Z,84.44
2018-12-06T21:16:08.721Z,84.59
2018-12-06T21:18:38.589Z,84.33
2018-12-06T21:21:08.513Z,84.72
2018-12-06T21:23:38.375Z,84.08
2018-12-06T21:26:08.249Z,84.66
2018-12-06T21:28:38.184Z,84.68
2018-12-06T21:31:08.391Z,84.62
2018-12-06T21:33:38.316Z,84.15
2018-12-06T21:36:08.107Z,83.94
2018-12-06T21:38:38.105Z,84.12
2018-12-06T21:41:08.021Z,83.97
2018-12-06T21:43:37.726Z,84.07
2018-12-06T21:46:07.440Z,84.57
2018-12-06T21:48:37.287Z,85.26
2018-12-06T21:51:07.154Z,86.00
2018-12-06T21:53:37.159Z,86.50
2018-12-06T21:56:07.150Z,85.40
2018-12-06T21:58:37.096Z,85.68
2018-12-06T22:01:07.080Z,86.42
2018-12-06T22:03:36.878Z,86.10
2018-12-06T22:06:06.616Z,85.93
2018-12-06T22:08:36.531Z,86.84
2018-12-06T22:11:06.440Z,87.67
2018-12-06T22:13:37.650Z,87.62
2018-12-06T22:16:07.647Z,88.27
2018-12-06T22:18:37.965Z,88.46
2018-12-06T22:21:07.700Z,88.66
2018-12-06T22:23:37.585Z,88.45
2018-12-06T22:26:07.377Z,87.86
2018-12-06T22:28:37.134Z,88.28
2018-12-06T22:31:07.710Z,88.82
2018-12-06T22:33:37.513Z,89.02
2018-12-06T22:36:07.441Z,89.72
2018-12-06T22:38:37.442Z,90.07
2018-12-06T22:41:07.244Z,89.87
2018-12-06T22:43:37.036Z,89.62
2018-12-06T22:46:06.937Z,90.12
2018-12-06T22:48:37.404Z,90.60
2018-12-06T22:51:07.258Z,89.97
2018-12-06T22:53:37.148Z,90.86
2018-12-06T22:56:07.227Z,91.01
2018-12-06T22:58:36.934Z,90.10
2018-12-06T23:01:11.046Z,90.98
2018-12-06T23:03:40.820Z,91.18
2018-12-06T23:06:10.761Z,91.42
2018-12-06T23:08:40.763Z,91.00
2018-12-06T23:11:10.738Z,91.95
2018-12-06T23:13:40.929Z,91.67
2018-12-06T23:16:10.846Z,91.13
2018-12-06T23:18:41.508Z,91.64
2018-12-06T23:21:12.299Z,90.96
2018-12-06T23:23:42.142Z,90.66
2018-12-06T23:26:12.114Z,90.47
2018-12-06T23:28:41.903Z,90.55
2018-12-06T23:31:11.581Z,91.08
2018-12-06T23:33:41.612Z,90.77
2018-12-06T23:36:11.729Z,90.24
2018-12-06T23:38:41.708Z,89.99
2018-12-06T23:41:11.543Z,89.80
2018-12-06T23:43:41.468Z,88.41
2018-12-06T23:46:11.277Z,88.34
2018-12-06T23:48:41.830Z,88.76
2018-12-06T23:51:28.686Z,88.29
2018-12-06T23:53:59.282Z,87.74
2018-12-06T23:56:29.078Z,86.31
2018-12-06T23:58:58.872Z,86.53
